createdAt,value
2022-12-27T00:01:49.147Z,101129.91
2022-12-27T00:04:15.599Z,101133.75
2022-12-27T00:06:42.162Z,101132.52
2022-12-27T00:09:08.980Z,101136.77
2022-12-27T00:11:35.494Z,101142.81
2022-12-27T00:14:04.190Z,101143.31
2022-12-27T00:16:31.316Z,101149.73
2022-12-27T00:18:58.201Z,101148.20
2022-12-27T00:21:24.702Z,101157.96
2022-12-27T00:23:54.377Z,101153.89
2022-12-27T00:26:23.694Z,101156.02
2022-12-27T00:28:50.752Z,101154.73
2022-12-27T00:31:18.930Z,101157.94
2022-12-27T00:33:47.091Z,101162.83
2022-12-27T00:36:17.841Z,101166.30
2022-12-27T00:38:44.723Z,101166.77
2022-12-27T00:41:12.018Z,101165.10
2022-12-27T00:43:38.739Z,101167.72
2022-12-27T00:46:05.659Z,101169.30
2022-12-27T00:48:32.228Z,101169.05
2022-12-27T00:51:05.452Z,101171.98
2022-12-27T00:53:33.320Z,101173.84
2022-12-27T00:56:00.130Z,101175.39
2022-12-27T00:58:27.077Z,101179.80
2022-12-27T01:00:53.642Z,101185.41
2022-12-27T01:03:20.472Z,101190.76
2022-12-27T01:05:47.105Z,101189.77
2022-12-27T01:08:13.607Z,101185.42
2022-12-27T01:10:41.385Z,101188.85
2022-12-27T01:13:08.083Z,101190.22
2022-12-27T01:15:34.499Z,101196.17
2022-12-27T01:18:00.927Z,101207.36
2022-12-27T01:20:27.352Z,101222.67
2022-12-27T01:22:54.581Z,101223.41
2022-12-27T01:25:21.105Z,101223.52
2022-12-27T01:27:47.499Z,101220.69
2022-12-27T01:30:13.990Z,101233.21
2022-12-27T01:32:40.428Z,101229.39
2022-12-27T01:35:07.171Z,101223.14
2022-12-27T01:37:33.628Z,101223.31
2022-12-27T01:40:00.838Z,101221.02
2022-12-27T01:42:46.167Z,101221.88
2022-12-27T01:45:23.368Z,101221.57
2022-12-27T01:47:52.971Z,101221.56
2022-12-27T01:50:36.788Z,101225.35
2022-12-27T01:53:16.001Z,101219.70
2022-12-27T01:55:48.840Z,101226.19
2022-12-27T01:59:11.094Z,101227.83
2022-12-27T02:01:42.637Z,101228.27
2022-12-27T02:04:13.996Z,101227.23
2022-12-27T02:06:41.477Z,101227.65
2022-12-27T02:09:26.813Z,101230.56
2022-12-27T02:11:56.773Z,101239.25
2022-12-27T02:14:29.428Z,101242.45
2022-12-27T02:17:02.098Z,101242.16
2022-12-27T02:19:40.758Z,101245.27
2022-12-27T02:23:03.158Z,101248.38
2022-12-27T02:25:35.256Z,101252.01
2022-12-27T02:28:50.028Z,101258.63
2022-12-27T02:31:29.544Z,101252.12
2022-12-27T02:33:58.792Z,101254.38
2022-12-27T02:36:31.799Z,101257.88
2022-12-27T02:39:01.359Z,101252.81
2022-12-27T02:41:48.988Z,101248.96
2022-12-27T02:44:36.548Z,101249.02
2022-12-27T02:47:22.093Z,101254.05
2022-12-27T02:50:07.350Z,101248.54
2022-12-27T02:53:05.056Z,101249.23
2022-12-27T02:55:40.265Z,101246.03
2022-12-27T02:58:20.712Z,101255.45
2022-12-27T03:01:15.555Z,101252.70
2022-12-27T03:04:05.796Z,101253.52
2022-12-27T03:06:52.417Z,101250.05
2022-12-27T03:10:14.471Z,101248.34
2022-12-27T03:13:04.233Z,101242.29
2022-12-27T03:15:56.013Z,101244.45
2022-12-27T03:18:35.252Z,101252.36
2022-12-27T03:21:23.333Z,101251.57
2022-12-27T03:24:11.913Z,101243.78
2022-12-27T03:26:42.536Z,101240.27
2022-12-27T03:29:28.618Z,101245.14
2022-12-27T03:32:17.701Z,101245.27
2022-12-27T03:35:19.647Z,101248.77
2022-12-27T03:38:05.346Z,101248.65
2022-12-27T03:41:08.311Z,101248.63
2022-12-27T03:43:36.852Z,101255.36
2022-12-27T03:46:34.780Z,101256.94
2022-12-27T03:49:32.638Z,101251.98
2022-12-27T03:52:06.263Z,101254.35
2022-12-27T03:54:41.550Z,101250.73
2022-12-27T03:57:17.440Z,101246.02
2022-12-27T03:59:44.601Z,101252.66
2022-12-27T04:02:11.383Z,101256.67
2022-12-27T04:04:38.502Z,101255.77
2022-12-27T04:07:05.937Z,101258.96
2022-12-27T04:09:51.430Z,101253.63
2022-12-27T04:12:36.538Z,101262.33
2022-12-27T04:15:21.658Z,101253.25
2022-12-27T04:18:06.693Z,101255.84
2022-12-27T04:20:51.796Z,101261.14
2022-12-27T04:23:37.094Z,101264.71
2022-12-27T04:26:22.162Z,101258.70
2022-12-27T04:29:07.017Z,101258.60
2022-12-27T04:31:52.090Z,101258.60
2022-12-27T04:34:36.920Z,101257.84
2022-12-27T04:37:03.844Z,101264.40
2022-12-27T04:39:30.455Z,101257.48
2022-12-27T04:42:15.479Z,101265.56
2022-12-27T04:45:00.799Z,101266.34
2022-12-27T04:47:45.912Z,101267.34
2022-12-27T04:50:45.163Z,101267.33
2022-12-27T04:53:36.341Z,101259.20
2022-12-27T04:56:04.020Z,101268.88
2022-12-27T04:58:30.619Z,101263.33
2022-12-27T05:01:26.064Z,101263.12
2022-12-27T05:03:53.414Z,101271.88
2022-12-27T05:06:20.281Z,101267.20
2022-12-27T05:09:05.774Z,101275.23
2022-12-27T05:11:50.969Z,101270.41
2022-12-27T05:14:17.607Z,101272.42
2022-12-27T05:16:44.447Z,101268.29
2022-12-27T05:19:13.262Z,101269.52
2022-12-27T05:22:05.728Z,101262.87
2022-12-27T05:24:51.307Z,101268.38
2022-12-27T05:27:18.229Z,101268.45
2022-12-27T05:29:46.193Z,101270.95
2022-12-27T05:32:13.429Z,101279.00
2022-12-27T05:34:40.871Z,101278.58
2022-12-27T05:37:07.368Z,101275.61
2022-12-27T05:39:33.792Z,101277.98
2022-12-27T05:42:00.212Z,101277.60
2022-12-27T05:44:26.833Z,101280.91
2022-12-27T05:46:56.615Z,101288.70
2022-12-27T05:49:23.282Z,101295.48
2022-12-27T05:51:49.738Z,101306.67
2022-12-27T05:54:16.422Z,101301.79
2022-12-27T05:56:42.907Z,101313.67
2022-12-27T05:59:09.295Z,101320.09
2022-12-27T06:01:35.819Z,101316.61
2022-12-27T06:04:02.713Z,101314.61
2022-12-27T06:06:29.237Z,101311.77
2022-12-27T06:08:55.653Z,101314.95
2022-12-27T06:11:22.129Z,101318.48
2022-12-27T06:13:51.492Z,101320.45
2022-12-27T06:16:19.219Z,101327.27
2022-12-27T06:18:46.136Z,101323.63
2022-12-27T06:21:15.654Z,101325.23
2022-12-27T06:23:47.215Z,101336.89
2022-12-27T06:26:22.756Z,101339.19
2022-12-27T06:28:50.627Z,101334.30
2022-12-27T06:31:18.758Z,101337.90
2022-12-27T06:33:46.350Z,101334.38
2022-12-27T06:36:15.278Z,101343.00
2022-12-27T06:38:41.814Z,101347.16
2022-12-27T06:41:11.731Z,101346.11
2022-12-27T06:43:38.600Z,101348.00
2022-12-27T06:46:15.172Z,101348.11
2022-12-27T06:48:44.371Z,101359.78
2022-12-27T06:51:13.083Z,101357.48
2022-12-27T06:53:39.652Z,101343.67
2022-12-27T06:56:07.820Z,101353.33
2022-12-27T06:58:34.272Z,101354.02
2022-12-27T07:01:11.149Z,101356.23
2022-12-27T07:03:37.840Z,101367.58
2022-12-27T07:06:05.661Z,101379.52
2022-12-27T07:08:32.831Z,101381.32
2022-12-27T07:11:04.594Z,101379.10
2022-12-27T07:13:34.990Z,101384.77
2022-12-27T07:16:04.997Z,101381.23
2022-12-27T07:18:31.923Z,101388.02
2022-12-27T07:20:58.472Z,101381.61
2022-12-27T07:23:25.012Z,101383.88
2022-12-27T07:25:51.437Z,101389.11
2022-12-27T07:28:17.882Z,101399.34
2022-12-27T07:30:44.307Z,101391.33
2022-12-27T07:33:10.782Z,101403.02
2022-12-27T07:35:40.887Z,101409.14
2022-12-27T07:38:11.229Z,101414.88
2022-12-27T07:40:37.738Z,101418.30
2022-12-27T07:43:04.325Z,101429.55
2022-12-27T07:45:30.923Z,101443.21
2022-12-27T07:47:57.391Z,101439.81
2022-12-27T07:50:23.921Z,101444.04
2022-12-27T07:52:50.842Z,101444.38
2022-12-27T07:55:17.246Z,101445.18
2022-12-27T07:57:43.655Z,101452.54
2022-12-27T08:00:10.842Z,101459.78
2022-12-27T08:02:37.279Z,101455.64
2022-12-27T08:05:04.985Z,101461.60
2022-12-27T08:07:31.788Z,101457.38
2022-12-27T08:09:58.496Z,101462.57
2022-12-27T08:12:24.867Z,101469.18
2022-12-27T08:14:51.309Z,101474.79
2022-12-27T08:17:25.411Z,101471.50
2022-12-27T08:19:52.427Z,101478.70
2022-12-27T08:22:18.983Z,101477.99
2022-12-27T08:24:45.615Z,101494.03
2022-12-27T08:27:12.439Z,101488.71
2022-12-27T08:29:44.793Z,101487.10
2022-12-27T08:32:11.276Z,101496.89
2022-12-27T08:34:37.666Z,101497.18
2022-12-27T08:37:04.071Z,101506.53
2022-12-27T08:39:30.578Z,101516.57
2022-12-27T08:41:57.084Z,101520.30
2022-12-27T08:44:23.862Z,101512.44
2022-12-27T08:46:50.336Z,101521.71
2022-12-27T08:49:16.838Z,101521.02
2022-12-27T08:51:43.368Z,101536.04
2022-12-27T08:54:09.846Z,101524.33
2022-12-27T08:56:36.589Z,101531.10
2022-12-27T08:59:03.674Z,101537.13
2022-12-27T09:01:30.161Z,101539.51
2022-12-27T09:03:56.922Z,101537.20
2022-12-27T09:06:24.642Z,101541.49
2022-12-27T09:08:52.061Z,101548.35
2022-12-27T09:11:21.453Z,101539.96
2022-12-27T09:13:48.163Z,101548.52
2022-12-27T09:16:20.943Z,101546.59
2022-12-27T09:18:49.861Z,101541.20
2022-12-27T09:21:19.701Z,101547.48
2022-12-27T09:23:46.715Z,101542.08
2022-12-27T09:26:21.659Z,101547.84
2022-12-27T09:28:48.911Z,101542.29
2022-12-27T09:31:17.504Z,101555.06
2022-12-27T09:33:44.505Z,101546.38
2022-12-27T09:36:14.006Z,101553.11
2022-12-27T09:38:41.574Z,101555.67
2022-12-27T09:44:43.994Z,101566.91
2022-12-27T09:47:22.230Z,101569.19
2022-12-27T09:49:52.613Z,101569.03
2022-12-27T09:52:27.032Z,101570.79
2022-12-27T09:55:11.309Z,101578.92
2022-12-27T09:57:41.641Z,101574.48
2022-12-27T10:00:19.402Z,101580.48
2022-12-27T10:03:04.964Z,101584.58
2022-12-27T10:05:34.790Z,101580.77
2022-12-27T10:08:22.656Z,101584.19
2022-12-27T10:11:38.879Z,101590.09
2022-12-27T10:14:26.823Z,101587.13
2022-12-27T10:17:22.813Z,101594.42
2022-12-27T10:20:04.598Z,101597.45
2022-12-27T10:22:38.738Z,101597.56
2022-12-27T10:25:12.482Z,101590.00
2022-12-27T10:27:40.064Z,101588.87
2022-12-27T10:30:13.538Z,101583.69
2022-12-27T10:32:39.894Z,101591.02
2022-12-27T10:35:06.926Z,101588.04
2022-12-27T10:37:33.889Z,101590.81
2022-12-27T10:40:17.219Z,101593.11
2022-12-27T10:43:11.912Z,101592.23
2022-12-27T10:45:42.377Z,101593.03
2022-12-27T10:48:13.777Z,101595.69
2022-12-27T10:50:46.572Z,101597.74
2022-12-27T10:53:57.789Z,101598.13
2022-12-27T10:56:33.447Z,101601.09
2022-12-27T10:59:20.121Z,101621.65
2022-12-27T11:01:49.902Z,101608.64
2022-12-27T11:04:22.093Z,101612.46
2022-12-27T11:07:12.341Z,101616.17
2022-12-27T11:09:50.394Z,101616.20
2022-12-27T11:12:19.652Z,101612.36
2022-12-27T11:15:01.501Z,101613.10
2022-12-27T11:17:38.402Z,101611.35
2022-12-27T11:20:23.833Z,101609.48
2022-12-27T11:22:56.445Z,101604.15
2022-12-27T11:25:25.483Z,101600.83
2022-12-27T11:28:02.857Z,101609.41
2022-12-27T11:30:33.612Z,101601.67
2022-12-27T11:33:24.555Z,101591.11
2022-12-27T11:35:54.256Z,101601.19
2022-12-27T11:38:26.802Z,101601.65
2022-12-27T11:41:11.608Z,101602.55
2022-12-27T11:44:00.547Z,101603.89
2022-12-27T11:46:35.067Z,101601.56
2022-12-27T11:49:02.870Z,101597.24
2022-12-27T11:51:39.392Z,101595.31
2022-12-27T11:54:39.850Z,101596.52
2022-12-27T11:57:29.204Z,101603.24
2022-12-27T12:00:16.798Z,101608.77
2022-12-27T12:03:18.822Z,101609.20
2022-12-27T12:06:00.160Z,101604.56
2022-12-27T12:08:44.905Z,101609.08
2022-12-27T12:11:54.908Z,101610.30
2022-12-27T12:14:43.635Z,101608.30
2022-12-27T12:17:45.340Z,101605.79
2022-12-27T12:20:38.821Z,101614.16
2022-12-27T12:23:13.823Z,101612.73
2022-12-27T12:26:16.383Z,101618.95
2022-12-27T12:29:17.569Z,101628.77
2022-12-27T12:32:22.526Z,101632.63
2022-12-27T12:35:26.835Z,101631.26
2022-12-27T12:37:56.247Z,101626.97
2022-12-27T12:41:00.373Z,101635.18
2022-12-27T12:43:38.870Z,101635.66
2022-12-27T12:46:17.422Z,101631.77
2022-12-27T12:48:55.738Z,101627.54
2022-12-27T12:51:33.192Z,101631.61
2022-12-27T12:54:41.912Z,101630.98
2022-12-27T12:57:23.655Z,101629.30
2022-12-27T12:59:59.158Z,101629.94
2022-12-27T13:02:39.942Z,101626.86
2022-12-27T13:05:31.316Z,101627.63
2022-12-27T13:08:11.494Z,101627.80
2022-12-27T13:10:53.975Z,101619.05
2022-12-27T13:13:35.556Z,101612.19
2022-12-27T13:16:24.804Z,101623.22
2022-12-27T13:19:14.856Z,101604.20
2022-12-27T13:22:03.138Z,101597.52
2022-12-27T13:25:07.291Z,101598.42
2022-12-27T13:27:39.778Z,101597.38
2022-12-27T13:30:20.570Z,101597.58
2022-12-27T13:33:06.649Z,101596.45
2022-12-27T13:35:39.060Z,101600.66
2022-12-27T13:38:38.051Z,101604.75
2022-12-27T13:41:30.457Z,101605.95
2022-12-27T13:44:36.859Z,101602.15
2022-12-27T13:47:15.192Z,101597.79
2022-12-27T13:50:11.627Z,101595.35
2022-12-27T13:53:00.078Z,101600.62
2022-12-27T13:55:52.297Z,101599.02
2022-12-27T13:58:59.870Z,101605.00
2022-12-27T14:01:35.477Z,101603.41
2022-12-27T14:04:05.419Z,101595.38
2022-12-27T14:06:59.672Z,101598.98
2022-12-27T14:09:53.237Z,101593.54
2022-12-27T14:12:38.397Z,101595.41
2022-12-27T14:15:08.282Z,101590.04
2022-12-27T14:17:43.436Z,101587.19
2022-12-27T14:20:44.514Z,101585.91
2022-12-27T14:23:30.144Z,101584.79
2022-12-27T14:26:28.908Z,101582.35
2022-12-27T14:29:25.977Z,101576.78
2022-12-27T14:32:12.323Z,101578.17
2022-12-27T14:35:12.918Z,101577.58
2022-12-27T14:37:57.589Z,101573.90
2022-12-27T14:40:46.936Z,101575.77
2022-12-27T14:43:45.641Z,101573.59
2022-12-27T14:46:50.908Z,101571.09
2022-12-27T14:49:32.602Z,101574.23
2022-12-27T14:52:36.843Z,101568.60
2022-12-27T14:55:28.336Z,101577.71
2022-12-27T14:57:54.750Z,101574.60
2022-12-27T15:00:24.546Z,101576.67
2022-12-27T15:03:09.855Z,101574.58
2022-12-27T15:06:06.021Z,101574.70
2022-12-27T15:08:47.687Z,101579.58
2022-12-27T15:11:34.600Z,101580.58
2022-12-27T15:14:22.558Z,101578.50
2022-12-27T15:16:55.811Z,101578.08
2022-12-27T15:19:28.252Z,101574.81
2022-12-27T15:22:03.218Z,101570.64
2022-12-27T15:24:48.378Z,101568.52
2022-12-27T15:27:25.579Z,101571.39
2022-12-27T15:30:08.097Z,101568.38
2022-12-27T15:32:52.986Z,101568.84
2022-12-27T15:35:38.948Z,101571.41
2022-12-27T15:38:17.762Z,101562.02
2022-12-27T15:41:10.345Z,101556.44
2022-12-27T15:44:08.330Z,101554.79
2022-12-27T15:46:43.922Z,101555.41
2022-12-27T15:49:13.236Z,101551.48
2022-12-27T15:52:12.391Z,101549.11
2022-12-27T15:54:54.173Z,101552.85
2022-12-27T15:57:48.548Z,101545.60
2022-12-27T16:00:29.848Z,101547.84
2022-12-27T16:03:01.606Z,101545.05
2022-12-27T16:05:45.842Z,101544.20
2022-12-27T16:08:25.938Z,101539.33
2022-12-27T16:10:53.632Z,101537.95
2022-12-27T16:13:39.384Z,101542.00
2022-12-27T16:16:33.444Z,101539.23
2022-12-27T16:19:02.977Z,101538.91
2022-12-27T16:21:39.681Z,101539.52
2022-12-27T16:24:14.062Z,101534.20
2022-12-27T16:26:53.609Z,101535.03
2022-12-27T16:29:23.738Z,101528.40
2022-12-27T16:31:51.356Z,101529.11
2022-12-27T16:34:28.537Z,101524.96
2022-12-27T16:36:58.263Z,101526.83
2022-12-27T16:39:53.823Z,101519.85
2022-12-27T16:42:31.579Z,101518.45
2022-12-27T16:45:03.358Z,101522.20
2022-12-27T16:47:42.214Z,101522.60
2022-12-27T16:50:14.842Z,101520.39
2022-12-27T16:52:47.417Z,101518.70
2022-12-27T16:55:42.976Z,101517.92
2022-12-27T16:58:19.577Z,101514.94
2022-12-27T17:00:50.412Z,101511.73
2022-12-27T17:03:38.419Z,101508.88
2022-12-27T17:06:35.489Z,101505.80
2022-12-27T17:09:08.041Z,101494.27
2022-12-27T17:11:52.726Z,101499.86
2022-12-27T17:14:25.413Z,101496.98
2022-12-27T17:16:57.282Z,101498.19
2022-12-27T17:19:38.695Z,101499.99
2022-12-27T17:22:07.674Z,101504.89
2022-12-27T17:24:34.389Z,101502.77
2022-12-27T17:27:41.540Z,101499.75
2022-12-27T17:30:37.107Z,101501.02
2022-12-27T17:33:19.073Z,101498.20
2022-12-27T17:35:45.422Z,101500.56
2022-12-27T17:38:30.111Z,101498.88
2022-12-27T17:41:15.711Z,101495.29
2022-12-27T17:44:31.069Z,101499.45
2022-12-27T17:47:15.231Z,101495.56
2022-12-27T17:49:42.751Z,101493.81
2022-12-27T17:52:34.762Z,101492.34
2022-12-27T17:55:44.123Z,101490.80
2022-12-27T17:58:13.753Z,101491.39
2022-12-27T18:01:02.289Z,101486.88
2022-12-27T18:03:41.866Z,101490.77
2022-12-27T18:06:08.764Z,101478.81
2022-12-27T18:08:36.143Z,101478.73
2022-12-27T18:11:05.375Z,101469.92
2022-12-27T18:13:37.098Z,101474.45
2022-12-27T18:16:15.669Z,101476.00
2022-12-27T18:18:47.637Z,101480.55
2022-12-27T18:21:53.405Z,101482.99
2022-12-27T18:24:33.633Z,101478.91
2022-12-27T18:27:06.262Z,101471.13
2022-12-27T18:29:33.911Z,101470.66
2022-12-27T18:32:09.330Z,101468.15
2022-12-27T18:34:59.084Z,101465.14
2022-12-27T18:37:26.285Z,101462.16
2022-12-27T18:40:04.679Z,101457.55
2022-12-27T18:42:36.473Z,101453.55
2022-12-27T18:45:26.279Z,101445.13
2022-12-27T18:47:55.511Z,101444.58
2022-12-27T18:50:27.883Z,101442.23
2022-12-27T18:53:21.393Z,101439.55
2022-12-27T18:56:07.503Z,101435.80
2022-12-27T18:58:34.640Z,101429.95
2022-12-27T19:01:05.320Z,101428.65
2022-12-27T19:03:38.206Z,101424.19
2022-12-27T19:06:09.009Z,101422.47
2022-12-27T19:08:52.982Z,101422.67
2022-12-27T19:11:29.318Z,101418.73
2022-12-27T19:14:00.282Z,101411.63
2022-12-27T19:16:29.229Z,101409.69
2022-12-27T19:19:01.630Z,101399.02
2022-12-27T19:21:37.381Z,101397.50
2022-12-27T19:24:23.574Z,101396.91
2022-12-27T19:26:51.174Z,101397.15
2022-12-27T19:29:23.314Z,101393.64
2022-12-27T19:32:09.155Z,101396.91
2022-12-27T19:34:57.472Z,101394.67
2022-12-27T19:37:29.392Z,101399.11
2022-12-27T19:39:57.105Z,101392.94
2022-12-27T19:42:31.358Z,101393.81
2022-12-27T19:44:58.104Z,101393.71
2022-12-27T19:47:26.434Z,101395.13
2022-12-27T19:49:52.954Z,101389.29
2022-12-27T19:52:22.954Z,101389.23
2022-12-27T19:54:52.763Z,101389.50
2022-12-27T19:57:19.775Z,101388.09
2022-12-27T19:59:46.268Z,101382.02
2022-12-27T20:02:12.937Z,101381.14
2022-12-27T20:04:39.543Z,101374.80
2022-12-27T20:07:06.138Z,101375.47
2022-12-27T20:09:32.584Z,101366.71
2022-12-27T20:11:59.020Z,101366.17
2022-12-27T20:14:25.377Z,101365.67
2022-12-27T20:16:51.813Z,101362.94
2022-12-27T20:19:20.009Z,101355.58
2022-12-27T20:21:46.820Z,101351.34
2022-12-27T20:24:14.028Z,101351.39
2022-12-27T20:26:41.489Z,101351.59
2022-12-27T20:29:08.207Z,101347.55
2022-12-27T20:31:40.480Z,101342.27
2022-12-27T20:34:11.051Z,101346.37
2022-12-27T20:36:37.580Z,101354.89
2022-12-27T20:39:04.032Z,101354.34
2022-12-27T20:41:30.496Z,101355.17
2022-12-27T20:43:58.263Z,101349.55
2022-12-27T20:46:25.333Z,101349.48
2022-12-27T20:48:53.688Z,101345.73
2022-12-27T20:51:23.249Z,101340.95
2022-12-27T20:57:39.145Z,101328.77
2022-12-27T21:00:08.328Z,101325.15
2022-12-27T21:02:35.312Z,101318.30
2022-12-27T21:05:01.841Z,101316.52
2022-12-27T21:07:28.331Z,101319.59
2022-12-27T21:09:55.284Z,101315.70
2022-12-27T21:12:21.668Z,101315.58
2022-12-27T21:14:49.940Z,101317.39
2022-12-27T21:17:17.528Z,101316.23
2022-12-27T21:19:43.936Z,101316.37
2022-12-27T21:22:10.409Z,101321.64
2022-12-27T21:24:36.917Z,101323.91
2022-12-27T21:27:03.478Z,101323.30
2022-12-27T21:29:29.952Z,101322.78
2022-12-27T21:31:56.383Z,101323.86
2022-12-27T21:34:22.874Z,101324.17
2022-12-27T21:36:52.310Z,101313.31
2022-12-27T21:39:19.141Z,101323.09
2022-12-27T21:41:45.700Z,101313.70
2022-12-27T21:44:12.555Z,101317.58
2022-12-27T21:46:42.048Z,101321.59
2022-12-27T21:49:13.099Z,101318.84
2022-12-27T21:51:41.082Z,101321.94
2022-12-27T21:54:08.129Z,101324.79
2022-12-27T21:56:34.917Z,101316.22
2022-12-27T21:59:03.037Z,101314.14
2022-12-27T22:01:50.163Z,101304.33
2022-12-27T22:04:18.331Z,101303.48
2022-12-27T22:06:47.093Z,101300.33
2022-12-27T22:09:14.236Z,101293.84
2022-12-27T22:11:40.693Z,101292.92
2022-12-27T22:14:07.221Z,101292.11
2022-12-27T22:16:36.521Z,101293.82
2022-12-27T22:19:09.673Z,101298.03
2022-12-27T22:21:37.822Z,101301.00
2022-12-27T22:24:04.929Z,101301.02
2022-12-27T22:26:41.753Z,101296.55
2022-12-27T22:29:08.230Z,101293.19
2022-12-27T22:31:37.522Z,101287.45
2022-12-27T22:34:05.104Z,101284.29
2022-12-27T22:36:32.068Z,101283.34
2022-12-27T22:38:59.707Z,101278.09
2022-12-27T22:41:28.838Z,101278.39
2022-12-27T22:43:58.345Z,101271.77
2022-12-27T22:46:25.907Z,101272.48
2022-12-27T22:48:55.640Z,101272.91
2022-12-27T22:51:27.737Z,101268.64
2022-12-27T22:53:55.598Z,101264.96
2022-12-27T22:56:25.117Z,101264.11
2022-12-27T22:58:52.229Z,101262.75
2022-12-27T23:01:23.931Z,101262.49
2022-12-27T23:03:51.194Z,101263.75
2022-12-27T23:06:17.730Z,101256.96
2022-12-27T23:08:45.419Z,101252.40
2022-12-27T23:11:15.001Z,101245.52
2022-12-27T23:13:41.614Z,101242.08
2022-12-27T23:16:08.477Z,101239.11
2022-12-27T23:18:36.628Z,101243.02
2022-12-27T23:21:20.538Z,101240.79
2022-12-27T23:23:50.773Z,101236.48
2022-12-27T23:26:19.929Z,101235.45
2022-12-27T23:28:47.818Z,101230.53
2022-12-27T23:31:15.417Z,101223.56
2022-12-27T23:33:43.250Z,101211.30
2022-12-27T23:36:11.128Z,101204.98
2022-12-27T23:38:38.052Z,101191.89
2022-12-27T23:41:06.818Z,101184.78
2022-12-27T23:43:55.745Z,101175.40
2022-12-27T23:46:27.621Z,101164.45
2022-12-27T23:48:55.600Z,101167.87
2022-12-27T23:51:22.470Z,101160.27
2022-12-27T23:53:49.333Z,101155.67
2022-12-27T23:56:17.457Z,101151.13
2022-12-27T23:58:44.883Z,101148.30
